Time;durP1;ratioP1;P1;durP2;ratioP2;P2;SDS_P1;SDS_P2;PMS_P1;PMS_P2;Temp;Humidity;BMP_temperature;BMP_pressure;BME280_temperature;BME280_humidity;BME280_pressure;Samples;Min_cycle;Max_cycle;Signal;HPM_P1;HPM_P2
2023/12/29 00:02:13;;;;;;;0.25;0.25;;;;;;;5.69;50.71;101844.53;6070025;23;20455;-85
2023/12/29 00:04:39;;;;;;;2.65;0.93;;;;;;;5.71;50.89;101859.28;6070485;23;20371;-86
2023/12/29 00:07:05;;;;;;;0.20;0.20;;;;;;;5.63;50.62;101847.59;6045648;23;20383;-86
2023/12/29 00:09:37;;;;;;;0.60;0.47;;;;;;;5.55;50.74;101859.53;6073279;23;20399;-85
2023/12/29 00:12:04;;;;;;;0.70;0.70;;;;;;;5.54;50.95;101857.00;6071786;23;20366;-86
2023/12/29 00:14:29;;;;;;;0.47;0.47;;;;;;;5.56;50.74;101862.97;6082406;23;20375;-86
2023/12/29 00:16:59;;;;;;;0.20;0.20;;;;;;;5.49;50.94;101859.97;6086506;23;20386;-86
2023/12/29 00:19:25;;;;;;;0.20;0.20;;;;;;;5.46;50.90;101860.16;6086249;23;20446;-87
2023/12/29 00:21:55;;;;;;;0.20;0.20;;;;;;;5.47;50.92;101861.00;6069164;23;20355;-87
2023/12/29 00:24:24;;;;;;;0.70;0.70;;;;;;;5.50;50.66;101856.38;6041769;23;20434;-88
2023/12/29 00:26:50;;;;;;;0.57;0.57;;;;;;;5.55;50.26;101861.31;6066376;23;20368;-87
2023/12/29 00:29:15;;;;;;;0.80;0.80;;;;;;;5.50;50.46;101840.59;6065921;23;20695;-89
2023/12/29 00:31:41;;;;;;;0.63;0.63;;;;;;;5.52;50.49;101851.00;6064996;23;20704;-86
2023/12/29 00:34:07;;;;;;;0.40;0.40;;;;;;;5.51;50.50;101854.56;6068955;23;20403;-87
2023/12/29 00:36:33;;;;;;;0.50;0.50;;;;;;;5.47;50.63;101869.72;6071708;23;20430;-87
2023/12/29 00:38:58;;;;;;;0.40;0.40;;;;;;;5.33;50.70;101865.47;6090359;23;20375;-87
2023/12/29 00:41:24;;;;;;;1.33;0.50;;;;;;;5.28;50.88;101859.69;6067693;23;20437;-86
2023/12/29 00:43:50;;;;;;;0.20;0.20;;;;;;;5.25;50.72;101862.50;6066838;23;20754;-84
2023/12/29 00:46:15;;;;;;;1.20;1.10;;;;;;;5.21;50.91;101861.06;6066577;23;20375;-85
2023/12/29 00:48:42;;;;;;;0.17;0.17;;;;;;;5.28;50.63;101856.22;6065923;23;20715;-85
2023/12/29 00:51:09;;;;;;;0.73;0.73;;;;;;;5.32;50.59;101855.03;6067376;23;20348;-85
2023/12/29 00:53:35;;;;;;;0.30;0.30;;;;;;;5.36;50.47;101859.97;6067279;23;20383;-84
2023/12/29 00:56:01;;;;;;;0.57;0.57;;;;;;;5.38;50.32;101854.59;6071035;23;20438;-87
2023/12/29 00:58:26;;;;;;;0.55;0.55;;;;;;;5.44;50.18;101855.94;6087593;23;20402;-85
2023/12/29 01:00:52;;;;;;;2.70;1.00;;;;;;;5.43;50.22;101851.66;6083486;23;20700;-85
2023/12/29 01:03:18;;;;;;;0.75;0.75;;;;;;;5.40;50.70;101857.97;6068772;23;20438;-86
2023/12/29 01:05:44;;;;;;;0.15;0.15;;;;;;;5.37;50.18;101842.41;6066522;23;20375;-87
2023/12/29 01:08:09;;;;;;;1.17;1.10;;;;;;;5.46;50.35;101854.09;6067935;23;20426;-87
2023/12/29 01:10:35;;;;;;;0.43;0.43;;;;;;;5.38;50.60;101846.72;6066573;23;20367;-87
2023/12/29 01:13:00;;;;;;;1.33;1.23;;;;;;;5.31;50.44;101845.47;6068912;23;20400;-86
2023/12/29 01:15:27;;;;;;;0.70;0.70;;;;;;;5.32;50.88;101842.72;6080302;23;20371;-86
2023/12/29 01:17:52;;;;;;;0.30;0.30;;;;;;;5.33;50.68;101839.16;6065587;23;20383;-87
2023/12/29 01:20:18;;;;;;;0.40;0.40;;;;;;;5.33;50.65;101828.66;6067792;23;20365;-86
2023/12/29 01:22:44;;;;;;;0.45;0.45;;;;;;;5.21;51.14;101834.75;6043509;23;20367;-85
2023/12/29 01:25:11;;;;;;;0.43;0.43;;;;;;;5.23;51.10;101839.91;6081077;23;20378;-86
2023/12/29 01:27:36;;;;;;;0.80;0.77;;;;;;;5.25;51.31;101844.09;6084635;23;20377;-86
2023/12/29 01:30:02;;;;;;;0.60;0.60;;;;;;;5.36;51.00;101840.72;6088657;23;20410;-85
2023/12/29 01:32:29;;;;;;;0.77;0.77;;;;;;;5.34;50.89;101827.69;6082445;23;20859;-88
2023/12/29 01:34:55;;;;;;;1.40;0.50;;;;;;;5.42;50.37;101834.19;6066575;23;20459;-87
2023/12/29 01:37:20;;;;;;;0.73;0.73;;;;;;;5.48;50.61;101828.50;6065646;23;20418;-87
2023/12/29 01:39:46;;;;;;;0.30;0.30;;;;;;;5.45;50.55;101819.03;6065254;23;20383;-85
2023/12/29 01:42:12;;;;;;;1.40;0.93;;;;;;;5.58;50.57;101823.41;6065196;23;20363;-86
2023/12/29 01:44:37;;;;;;;0.20;0.20;;;;;;;5.64;50.65;101818.56;6041185;23;20517;-86
2023/12/29 01:47:10;;;;;;;0.70;0.70;;;;;;;5.61;50.35;101813.53;6065207;23;20413;-87
2023/12/29 01:49:37;;;;;;;0.30;0.30;;;;;;;5.63;50.45;101818.69;6066521;23;20363;-86
2023/12/29 01:52:04;;;;;;;0.50;0.50;;;;;;;5.63;50.83;101795.84;6064753;23;20443;-86
2023/12/29 01:54:37;;;;;;;0.47;0.47;;;;;;;5.76;50.54;101803.66;6065237;23;20457;-87
2023/12/29 01:57:04;;;;;;;0.20;0.20;;;;;;;5.78;50.31;101803.56;6073131;23;20403;-90
2023/12/29 01:59:31;;;;;;;0.88;0.88;;;;;;;5.75;50.25;101823.06;6074417;23;20397;-88
2023/12/29 02:01:57;;;;;;;0.13;0.13;;;;;;;5.63;50.12;101808.97;6046989;23;20371;-91
2023/12/29 02:04:25;;;;;;;0.50;0.50;;;;;;;5.68;50.42;101806.03;6066564;23;20592;-89
2023/12/29 02:06:53;;;;;;;0.40;0.40;;;;;;;5.68;50.38;101792.88;6066096;23;20362;-89
2023/12/29 02:09:19;;;;;;;0.23;0.23;;;;;;;5.74;50.39;101795.06;6065326;23;20703;-88
2023/12/29 02:11:46;;;;;;;0.40;0.40;;;;;;;5.80;50.26;101789.38;6065256;23;20843;-89
2023/12/29 02:14:13;;;;;;;0.40;0.40;;;;;;;5.77;50.22;101792.22;6059672;23;20372;-88
2023/12/29 02:17:21;;;;;;;0.25;0.25;;;;;;;5.74;50.27;101769.59;6065837;23;20363;-87
2023/12/29 02:19:49;;;;;;;1.30;0.80;;;;;;;5.62;49.88;101777.53;6064015;23;20458;-86
2023/12/29 02:22:15;;;;;;;0.30;0.30;;;;;;;5.60;50.07;101782.94;6063583;23;20363;-85
2023/12/29 02:24:48;;;;;;;1.10;1.10;;;;;;;5.54;50.19;101773.66;6039944;23;20406;-85
2023/12/29 02:27:17;;;;;;;0.50;0.50;;;;;;;5.27;50.86;101781.75;6064280;23;20359;-85
2023/12/29 02:29:49;;;;;;;0.75;0.75;;;;;;;4.93;52.07;101780.66;6064531;23;20371;-86
2023/12/29 02:32:18;;;;;;;1.40;0.65;;;;;;;4.95;51.57;101766.47;6064593;23;20363;-85
2023/12/29 02:34:48;;;;;;;0.77;0.77;;;;;;;5.01;51.36;101774.88;6065479;23;20387;-89
2023/12/29 02:37:15;;;;;;;0.60;0.60;;;;;;;4.98;51.81;101771.50;6065197;23;20375;-87
2023/12/29 02:39:41;;;;;;;0.68;0.68;;;;;;;5.14;51.09;101765.19;6065347;23;20422;-88
2023/12/29 02:42:06;;;;;;;0.80;0.80;;;;;;;5.21;51.00;101769.03;6065205;23;20368;-89
2023/12/29 02:44:53;;;;;;;0.50;0.50;;;;;;;5.20;50.61;101761.25;6087562;23;20390;-88
2023/12/29 02:47:21;;;;;;;0.60;0.60;;;;;;;5.28;50.90;101769.47;6092831;23;20451;-90
2023/12/29 02:49:46;;;;;;;0.55;0.55;;;;;;;5.29;50.52;101758.81;6078728;23;20905;-85
2023/12/29 02:52:12;;;;;;;0.50;0.50;;;;;;;5.34;50.65;101759.31;6065617;23;20379;-87
2023/12/29 02:54:38;;;;;;;0.45;0.45;;;;;;;5.34;50.59;101756.69;6067270;23;20435;-88
2023/12/29 02:57:03;;;;;;;0.87;0.50;;;;;;;5.40;50.63;101749.31;6067559;23;20451;-89
2023/12/29 02:59:29;;;;;;;0.70;0.70;;;;;;;5.44;50.36;101759.53;6067345;23;20462;-89
2023/12/29 03:01:55;;;;;;;0.60;0.60;;;;;;;5.36;50.63;101748.69;6069551;23;20461;-89
2023/12/29 03:04:20;;;;;;;0.60;0.60;;;;;;;5.40;50.64;101742.25;6074796;23;20447;-87
2023/12/29 03:06:48;;;;;;;0.65;0.65;;;;;;;5.40;50.89;101762.47;6085128;23;20367;-88
2023/12/29 03:09:14;;;;;;;0.70;0.70;;;;;;;5.35;51.29;101755.75;6090837;23;20390;-90
2023/12/29 03:11:40;;;;;;;0.93;0.93;;;;;;;5.43;52.14;101751.75;6069689;23;20371;-89
2023/12/29 03:14:05;;;;;;;0.60;0.60;;;;;;;5.42;53.00;101744.78;6064757;23;20375;-87
2023/12/29 03:16:31;;;;;;;1.35;1.08;;;;;;;5.40;53.86;101741.44;6064652;23;20376;-89
2023/12/29 03:18:57;;;;;;;1.30;1.20;;;;;;;5.55;53.80;101737.69;6065857;23;20387;-88
2023/12/29 03:21:22;;;;;;;0.47;0.47;;;;;;;5.64;54.34;101747.53;6064578;23;20715;-88
2023/12/29 03:23:48;;;;;;;0.93;0.93;;;;;;;5.57;54.84;101753.38;6066637;23;20419;-88
2023/12/29 03:26:14;;;;;;;0.60;0.60;;;;;;;5.62;55.06;101743.34;6065213;23;20367;-87
2023/12/29 03:28:39;;;;;;;0.60;0.60;;;;;;;5.65;54.88;101737.84;6069881;23;20374;-86
2023/12/29 03:31:06;;;;;;;0.73;0.73;;;;;;;5.68;55.01;101746.38;6068782;23;20441;-87
2023/12/29 03:33:33;;;;;;;0.35;0.35;;;;;;;5.60;55.26;101747.88;6067294;23;20419;-88
2023/12/29 03:36:00;;;;;;;0.57;0.57;;;;;;;5.50;55.87;101752.97;6065437;23;20411;-87
2023/12/29 03:38:25;;;;;;;0.43;0.43;;;;;;;5.55;55.21;101749.06;6064639;23;20458;-89
2023/12/29 03:40:52;;;;;;;1.33;1.10;;;;;;;5.58;55.11;101750.59;6064952;23;20398;-87
2023/12/29 03:43:18;;;;;;;1.30;1.20;;;;;;;5.57;55.51;101754.19;6064844;23;20367;-88
2023/12/29 03:45:43;;;;;;;1.80;1.70;;;;;;;5.53;55.42;101753.59;6040788;23;20377;-86
2023/12/29 03:48:09;;;;;;;1.33;1.02;;;;;;;5.66;55.93;101756.16;6063994;23;20395;-86
2023/12/29 03:50:35;;;;;;;0.95;0.85;;;;;;;5.71;55.99;101745.31;6064749;23;20371;-86
2023/12/29 03:53:04;;;;;;;0.82;0.63;;;;;;;5.86;55.96;101743.34;6040198;23;20421;-88
2023/12/29 03:55:29;;;;;;;0.38;0.38;;;;;;;5.93;56.35;101748.03;6040770;23;20486;-87
2023/12/29 03:57:59;;;;;;;0.50;0.50;;;;;;;6.12;56.51;101747.53;6065222;23;20773;-87
2023/12/29 04:00:25;;;;;;;2.45;1.63;;;;;;;6.29;56.19;101751.50;6064517;23;20367;-86
2023/12/29 04:02:51;;;;;;;0.80;0.80;;;;;;;6.39;56.02;101738.50;6064302;23;20407;-88
2023/12/29 04:05:16;;;;;;;0.73;0.52;;;;;;;6.61;55.73;101737.69;6063624;23;20450;-89
2023/12/29 04:07:42;;;;;;;4.10;2.30;;;;;;;6.73;55.68;101743.78;6063744;23;20756;-88
2023/12/29 04:10:08;;;;;;;1.60;1.50;;;;;;;6.82;55.66;101735.16;6064364;23;20371;-87
2023/12/29 04:12:34;;;;;;;0.70;0.70;;;;;;;7.01;55.56;101723.16;6064334;23;20370;-87
2023/12/29 04:15:00;;;;;;;0.97;0.90;;;;;;;7.16;55.05;101736.94;6041401;23;20368;-87
2023/12/29 04:17:26;;;;;;;1.70;1.10;;;;;;;7.37;54.64;101735.19;6066810;23;20410;-85
2023/12/29 04:19:52;;;;;;;0.70;0.70;;;;;;;7.48;54.39;101739.59;6065665;23;20779;-87
2023/12/29 04:22:18;;;;;;;0.50;0.50;;;;;;;7.64;54.30;101732.13;6066061;23;20363;-88
2023/12/29 04:24:44;;;;;;;1.17;1.17;;;;;;;7.79;53.72;101739.75;6065364;23;20403;-88
2023/12/29 04:27:10;;;;;;;0.70;0.70;;;;;;;7.82;53.46;101727.13;6065931;23;20366;-88
2023/12/29 04:29:35;;;;;;;0.50;0.50;;;;;;;7.92;53.56;101729.00;6065926;23;20450;-89
2023/12/29 04:32:01;;;;;;;0.57;0.57;;;;;;;7.97;53.10;101727.66;6065414;23;20387;-86
2023/12/29 04:34:27;;;;;;;0.33;0.33;;;;;;;8.06;53.33;101735.78;6064504;23;20382;-86
2023/12/29 04:36:52;;;;;;;1.20;0.70;;;;;;;8.14;52.89;101739.47;6065573;23;20378;-88
2023/12/29 04:39:25;;;;;;;0.47;0.47;;;;;;;8.24;52.65;101735.06;6066490;23;20421;-87
2023/12/29 04:41:51;;;;;;;0.93;0.93;;;;;;;8.27;52.66;101743.72;6065527;23;20398;-90
2023/12/29 04:44:16;;;;;;;0.70;0.70;;;;;;;8.32;52.59;101731.78;6067002;23;20407;-90
2023/12/29 04:46:44;;;;;;;0.43;0.43;;;;;;;8.39;52.64;101748.78;6066230;23;20360;-89
2023/12/29 04:49:09;;;;;;;1.40;0.30;;;;;;;8.42;52.75;101745.06;6064940;23;20394;-89
2023/12/29 04:51:58;;;;;;;0.60;0.60;;;;;;;8.51;52.60;101746.09;6068012;23;20704;-88
2023/12/29 04:54:24;;;;;;;0.40;0.40;;;;;;;8.49;52.35;101750.69;6077385;23;20396;-87
2023/12/29 04:56:50;;;;;;;0.30;0.30;;;;;;;8.60;52.23;101740.03;6091222;23;20382;-87
2023/12/29 04:59:16;;;;;;;0.70;0.70;;;;;;;8.76;51.96;101736.91;6074324;23;20398;-88
2023/12/29 05:01:42;;;;;;;0.30;0.30;;;;;;;8.65;52.36;101747.56;6067132;23;20379;-87
2023/12/29 05:04:08;;;;;;;0.50;0.50;;;;;;;8.71;52.11;101739.09;6066236;23;20418;-86
2023/12/29 05:06:33;;;;;;;0.60;0.60;;;;;;;8.75;51.88;101736.06;6068014;23;20386;-89
2023/12/29 05:09:01;;;;;;;1.47;1.43;;;;;;;8.86;51.45;101751.00;6066817;23;20436;-90
2023/12/29 05:11:27;;;;;;;0.60;0.60;;;;;;;8.89;51.67;101741.94;6069181;23;20744;-90
2023/12/29 05:13:54;;;;;;;0.70;0.70;;;;;;;8.91;51.53;101753.22;6083183;23;20383;-88
2023/12/29 05:16:20;;;;;;;0.93;0.93;;;;;;;8.95;51.86;101760.78;6091341;23;20409;-90
2023/12/29 05:18:46;;;;;;;0.67;0.67;;;;;;;9.01;51.17;101754.09;6088092;23;20478;-89
2023/12/29 05:21:18;;;;;;;0.57;0.57;;;;;;;9.04;51.03;101745.91;6071284;23;20367;-89
2023/12/29 05:23:48;;;;;;;0.68;0.63;;;;;;;9.06;51.36;101759.00;6072251;23;20426;-89
2023/12/29 05:26:17;;;;;;;0.90;0.80;;;;;;;9.10;51.37;101757.75;6073965;23;20883;-89
2023/12/29 05:28:43;;;;;;;0.85;0.85;;;;;;;9.14;50.85;101752.06;6073193;23;20704;-89
2023/12/29 05:31:08;;;;;;;0.40;0.40;;;;;;;9.06;51.15;101745.78;6069750;23;20835;-89
2023/12/29 05:33:38;;;;;;;0.93;0.68;;;;;;;9.22;51.19;101748.75;6068934;23;20391;-90
2023/12/29 05:36:09;;;;;;;0.40;0.40;;;;;;;9.29;50.82;101738.44;6069251;23;20356;-89
2023/12/29 05:38:35;;;;;;;0.40;0.40;;;;;;;9.39;51.00;101752.53;6069125;23;20375;-88
2023/12/29 05:41:05;;;;;;;0.90;0.50;;;;;;;9.38;50.94;101751.72;6043343;23;20367;-87
2023/12/29 05:43:51;;;;;;;0.55;0.55;;;;;;;9.50;50.40;101741.81;6068321;23;20355;-88
2023/12/29 05:46:16;;;;;;;1.60;1.50;;;;;;;9.54;50.69;101751.19;6042036;23;20391;-88
2023/12/29 05:48:42;;;;;;;0.30;0.30;;;;;;;9.47;50.36;101750.06;6066125;23;20368;-88
2023/12/29 05:51:13;;;;;;;0.73;0.73;;;;;;;9.45;50.75;101743.22;6065987;23;20426;-87
2023/12/29 05:53:43;;;;;;;0.43;0.43;;;;;;;9.53;50.37;101735.44;6066773;23;20736;-86
2023/12/29 05:56:12;;;;;;;0.50;0.50;;;;;;;9.68;50.63;101752.56;6068267;23;20364;-88
2023/12/29 05:58:41;;;;;;;0.20;0.20;;;;;;;9.74;49.91;101749.38;6018680;23;20383;-89
2023/12/29 06:01:07;;;;;;;0.65;0.65;;;;;;;9.77;50.14;101746.44;6066486;23;20375;-88
2023/12/29 06:03:33;;;;;;;0.83;0.83;;;;;;;9.84;49.99;101754.66;6066484;23;20430;-87
2023/12/29 06:05:59;;;;;;;0.87;0.60;;;;;;;9.91;50.01;101762.91;6066162;23;20455;-88
2023/12/29 06:08:25;;;;;;;0.83;0.83;;;;;;;9.88;49.79;101749.91;6068432;23;20756;-88
2023/12/29 06:10:51;;;;;;;0.88;0.82;;;;;;;9.90;49.68;101745.31;6068534;23;20427;-87
2023/12/29 06:13:16;;;;;;;0.90;0.88;;;;;;;9.82;49.52;101738.06;6087087;23;20468;-88
2023/12/29 06:15:42;;;;;;;0.80;0.80;;;;;;;9.70;49.76;101745.31;6091876;23;20359;-89
2023/12/29 06:18:10;;;;;;;0.60;0.60;;;;;;;9.80;49.91;101740.03;6088982;23;20370;-87
2023/12/29 06:20:36;;;;;;;0.40;0.40;;;;;;;9.94;49.54;101744.09;6069520;23;20363;-89
2023/12/29 06:23:02;;;;;;;0.40;0.40;;;;;;;9.97;49.90;101748.25;6070484;23;20372;-89
2023/12/29 06:25:27;;;;;;;0.47;0.47;;;;;;;9.95;49.86;101756.34;6068255;23;20398;-89
2023/12/29 06:27:55;;;;;;;1.20;0.93;;;;;;;9.93;49.48;101760.94;6042730;23;20494;-88
2023/12/29 06:30:20;;;;;;;0.63;0.63;;;;;;;9.81;49.90;101764.69;6072184;23;20436;-87
2023/12/29 06:32:46;;;;;;;0.55;0.55;;;;;;;9.75;49.60;101764.28;6073895;23;20423;-89
2023/12/29 06:35:13;;;;;;;0.85;0.85;;;;;;;9.80;49.83;101769.16;6066356;23;20363;-90
2023/12/29 06:37:41;;;;;;;0.80;0.80;;;;;;;9.86;49.76;101768.59;6068024;23;20364;-90
2023/12/29 06:40:08;;;;;;;0.93;0.57;;;;;;;9.89;49.77;101762.19;6071303;23;20834;-90
2023/12/29 06:42:34;;;;;;;0.35;0.35;;;;;;;9.82;49.33;101764.56;6044046;23;20435;-90
2023/12/29 06:45:00;;;;;;;0.60;0.52;;;;;;;9.85;49.80;101771.38;6075313;23;20363;-89
2023/12/29 06:47:25;;;;;;;1.50;0.75;;;;;;;9.71;50.13;101776.13;6085551;23;20367;-89
2023/12/29 06:49:54;;;;;;;0.53;0.53;;;;;;;9.64;50.17;101787.41;6091785;23;20862;-86
2023/12/29 06:52:20;;;;;;;0.60;0.60;;;;;;;9.65;50.47;101774.03;6075460;23;20374;-90
2023/12/29 06:54:45;;;;;;;0.80;0.80;;;;;;;9.66;50.59;101780.16;6073067;23;20383;-90
2023/12/29 06:57:14;;;;;;;0.95;0.70;;;;;;;9.71;50.19;101776.13;6066987;23;20902;-89
2023/12/29 06:59:53;;;;;;;0.50;0.50;;;;;;;9.69;50.99;101778.06;6072399;23;20792;-92
2023/12/29 07:02:21;;;;;;;0.50;0.50;;;;;;;9.76;50.64;101773.91;6073765;23;20723;-91
2023/12/29 07:05:07;;;;;;;0.30;0.30;;;;;;;9.80;50.70;101779.75;6051696;23;20869;-91
2023/12/29 07:07:37;;;;;;;0.90;0.90;;;;;;;9.90;50.36;101783.25;6068541;23;20387;-91
2023/12/29 07:12:34;;;;;;;0.40;0.40;;;;;;;10.01;50.62;101778.78;6144158;23;20388;-90
2023/12/29 07:15:00;;;;;;;0.50;0.50;;;;;;;10.09;50.26;101771.78;6125749;23;20363;-91
2023/12/29 07:17:26;;;;;;;0.85;0.85;;;;;;;10.17;50.11;101776.38;6126694;23;20367;-86
2023/12/29 07:28:58;;;;;;;0.50;0.50;;;;;;;10.41;49.68;101781.28;6100662;23;20392;-88
2023/12/29 07:31:24;;;;;;;1.40;0.90;;;;;;;10.46;49.95;101780.84;6104771;23;20412;-92
2023/12/29 07:33:51;;;;;;;1.50;1.10;;;;;;;10.50;49.79;101784.91;6079168;23;20377;-90
2023/12/29 07:36:20;;;;;;;2.38;0.98;;;;;;;10.54;49.94;101780.16;6052379;23;20369;-90
2023/12/29 07:38:46;;;;;;;0.50;0.50;;;;;;;10.66;49.83;101792.22;6002612;23;20377;-90
2023/12/29 07:41:14;;;;;;;0.60;0.60;;;;;;;10.64;49.96;101781.78;6078063;23;20381;-91
2023/12/29 07:43:40;;;;;;;0.50;0.50;;;;;;;10.72;50.13;101799.63;6076379;23;20362;-90
2023/12/29 07:46:06;;;;;;;0.95;0.80;;;;;;;10.68;50.37;101771.72;6074820;23;20397;-90
2023/12/29 07:48:31;;;;;;;1.85;1.75;;;;;;;10.81;50.12;101779.34;6077099;23;20437;-89
2023/12/29 07:51:03;;;;;;;0.98;0.98;;;;;;;10.95;50.40;101776.22;6102828;23;20365;-89
2023/12/29 07:53:29;;;;;;;0.50;0.50;;;;;;;11.09;49.92;101785.50;6101469;23;21045;-88
2023/12/29 07:55:55;;;;;;;0.90;0.90;;;;;;;11.16;49.93;101778.63;6076724;23;20366;-89
2023/12/29 07:58:24;;;;;;;1.57;0.87;;;;;;;11.28;49.55;101777.44;6078257;23;20381;-89
2023/12/29 08:00:53;;;;;;;0.70;0.70;;;;;;;11.32;49.53;101777.16;6079860;23;20353;-91
2023/12/29 08:03:21;;;;;;;0.22;0.22;;;;;;;11.55;49.31;101775.75;6074738;23;20368;-88
2023/12/29 08:05:47;;;;;;;0.45;0.45;;;;;;;11.57;49.08;101775.59;6099885;23;20373;-89
2023/12/29 08:08:16;;;;;;;0.50;0.50;;;;;;;11.67;48.99;101784.34;6075861;23;20758;-90
2023/12/29 08:10:54;;;;;;;;;;;;;;;;;;;;;
2023/12/29 08:13:26;;;;;;;0.45;0.45;;;;;;;11.82;48.58;101769.53;6097682;23;20445;-91
2023/12/29 08:15:52;;;;;;;0.70;0.60;;;;;;;11.95;48.18;101769.19;6072693;23;20457;-91
2023/12/29 08:18:21;;;;;;;0.53;0.53;;;;;;;12.03;48.45;101769.25;6075589;23;20381;-89
2023/12/29 08:20:50;;;;;;;0.50;0.50;;;;;;;12.14;48.10;101773.50;6053188;23;20455;-90
2023/12/29 08:23:17;;;;;;;0.60;0.60;;;;;;;12.07;48.07;101775.09;6078562;23;20369;-90
2023/12/29 08:25:43;;;;;;;0.50;0.50;;;;;;;12.26;47.94;101775.91;6104143;23;20368;-88
2023/12/29 08:28:11;;;;;;;0.80;0.40;;;;;;;12.34;47.63;101781.28;6076946;23;20689;-90
2023/12/29 08:30:40;;;;;;;0.52;0.50;;;;;;;12.45;47.63;101780.19;6077801;23;20389;-91
2023/12/29 08:33:09;;;;;;;0.30;0.30;;;;;;;12.53;47.44;101794.41;6103522;23;20501;-87
2023/12/29 08:35:41;;;;;;;0.80;0.60;;;;;;;12.59;47.44;101791.09;6088433;23;20385;-92
2023/12/29 08:38:07;;;;;;;0.80;0.80;;;;;;;12.70;47.52;101800.63;6101716;23;20413;-91
2023/12/29 08:40:32;;;;;;;0.30;0.30;;;;;;;12.77;47.39;101799.03;6081637;23;20365;-90
2023/12/29 08:42:58;;;;;;;0.40;0.40;;;;;;;12.80;47.42;101796.06;6102276;23;20358;-88
2023/12/29 08:45:24;;;;;;;0.47;0.47;;;;;;;12.94;47.30;101796.44;6081071;23;20425;-89
2023/12/29 08:47:51;;;;;;;0.40;0.40;;;;;;;13.03;46.84;101792.00;6102357;23;20366;-92
2023/12/29 08:50:21;;;;;;;0.17;0.17;;;;;;;13.14;47.08;101799.69;6108223;23;20369;-93
2023/12/29 08:52:47;;;;;;;0.65;0.45;;;;;;;13.21;46.83;101795.38;6101913;23;20394;-90
2023/12/29 08:55:13;;;;;;;0.70;0.70;;;;;;;13.27;46.68;101786.78;6081099;23;20366;-91
2023/12/29 08:57:39;;;;;;;0.50;0.47;;;;;;;13.43;46.35;101794.00;6068016;23;20367;-92
2023/12/29 09:00:05;;;;;;;0.70;0.40;;;;;;;13.44;46.29;101786.84;6062033;23;20383;-90
2023/12/29 09:02:31;;;;;;;0.20;0.20;;;;;;;13.45;45.73;101793.84;6047662;23;20371;-87
2023/12/29 09:04:57;;;;;;;1.40;1.30;;;;;;;13.53;45.27;101792.03;6041440;23;20388;-90
2023/12/29 09:07:22;;;;;;;0.88;0.60;;;;;;;13.69;45.29;101790.41;6044046;23;20376;-88
2023/12/29 09:09:48;;;;;;;0.65;0.65;;;;;;;13.66;45.01;101777.41;6039676;23;20375;-88
2023/12/29 09:12:14;;;;;;;0.70;0.70;;;;;;;13.67;45.02;101769.25;6041554;23;20403;-89
2023/12/29 09:14:44;;;;;;;0.50;0.50;;;;;;;13.89;45.09;101777.59;6044193;23;20423;-87
2023/12/29 09:17:10;;;;;;;0.40;0.40;;;;;;;14.10;44.69;101779.78;6086038;23;20359;-89
2023/12/29 09:19:37;;;;;;;0.20;0.20;;;;;;;14.10;44.22;101775.28;6091298;23;20399;-92
2023/12/29 09:22:03;;;;;;;0.50;0.50;;;;;;;14.05;44.39;101760.78;6053750;23;20382;-88
2023/12/29 09:24:30;;;;;;;0.23;0.23;;;;;;;14.04;43.69;101759.09;6068774;23;20463;-89
2023/12/29 09:26:58;;;;;;;0.43;0.43;;;;;;;14.10;44.17;101761.94;6092859;23;20362;-88
2023/12/29 09:29:26;;;;;;;0.25;0.22;;;;;;;14.24;43.24;101746.25;6098994;23;20687;-88
2023/12/29 09:31:52;;;;;;;0.60;0.60;;;;;;;14.44;43.15;101758.22;6072237;23;20373;-88
2023/12/29 09:34:18;;;;;;;1.40;0.90;;;;;;;14.36;42.92;101746.75;6071566;23;20369;-89
2023/12/29 09:36:46;;;;;;;0.60;0.60;;;;;;;14.49;42.58;101744.38;6070640;23;20409;-91
2023/12/29 09:39:12;;;;;;;0.23;0.23;;;;;;;14.52;42.41;101741.38;6072641;23;20394;-83
2023/12/29 09:41:45;;;;;;;0.33;0.33;;;;;;;14.50;42.33;101735.38;6097813;23;20392;-91
2023/12/29 09:44:15;;;;;;;0.38;0.38;;;;;;;14.54;42.25;101736.69;6099145;23;20370;-90
2023/12/29 09:46:42;;;;;;;0.28;0.28;;;;;;;14.65;42.10;101731.00;6099626;23;20373;-88
2023/12/29 09:49:09;;;;;;;0.40;0.40;;;;;;;14.72;41.96;101725.81;6098742;23;20377;-89
2023/12/29 09:51:37;;;;;;;0.25;0.25;;;;;;;14.86;41.86;101733.13;6098513;23;20854;-90
2023/12/29 09:54:03;;;;;;;0.30;0.30;;;;;;;15.00;41.94;101723.56;6073862;23;20366;-89
2023/12/29 09:56:29;;;;;;;0.40;0.40;;;;;;;15.08;41.57;101717.31;6073385;23;20781;-89
2023/12/29 09:58:58;;;;;;;0.20;0.20;;;;;;;15.10;41.24;101715.31;6076015;23;20393;-91
2023/12/29 10:01:39;;;;;;;0.10;0.10;;;;;;;15.24;40.78;101708.41;5988244;23;20373;-89
2023/12/29 10:07:16;;;;;;;0.50;0.50;;;;;;;15.06;40.42;101695.31;6104138;23;20381;-91
2023/12/29 10:09:51;;;;;;;0.20;0.20;;;;;;;15.29;40.66;101696.16;6078120;23;20365;-91
2023/12/29 10:12:20;;;;;;;0.13;0.13;;;;;;;15.35;39.99;101699.97;6076535;23;20357;-90
2023/12/29 10:15:32;;;;;;;;;;;;;;;;;;;;;
2023/12/29 10:18:47;;;;;;;0.68;0.68;;;;;;;15.22;39.68;101681.03;6086432;23;20401;-90
2023/12/29 10:22:06;;;;;;;0.20;0.20;;;;;;;15.39;39.35;101692.44;6072187;23;20389;-89
2023/12/29 10:24:33;;;;;;;0.20;0.20;;;;;;;15.65;39.13;101671.53;6076364;23;20365;-88
2023/12/29 10:27:08;;;;;;;;;;;;;;;;;;;;;
2023/12/29 10:29:35;;;;;;;0.20;0.20;;;;;;;15.65;39.15;101674.19;6094496;23;20479;-89
2023/12/29 10:32:07;;;;;;;0.45;0.45;;;;;;;15.46;38.58;101683.50;6043670;23;20398;-89
2023/12/29 10:34:33;;;;;;;0.20;0.20;;;;;;;15.42;39.05;101671.53;6043947;23;20403;-88
2023/12/29 10:37:01;;;;;;;0.25;0.25;;;;;;;15.77;38.36;101682.66;6042422;23;20712;-88
2023/12/29 10:39:33;;;;;;;0.10;0.10;;;;;;;15.74;38.60;101671.47;6042810;23;20383;-89
2023/12/29 10:42:09;;;;;;;0.20;0.20;;;;;;;15.89;38.26;101668.84;6068211;23;20373;-90
2023/12/29 10:44:40;;;;;;;0.40;0.40;;;;;;;15.65;38.08;101668.84;6043705;23;20843;-89
2023/12/29 10:47:13;;;;;;;0.20;0.20;;;;;;;15.66;37.99;101651.81;6046382;23;20374;-89
2023/12/29 10:49:42;;;;;;;0.20;0.20;;;;;;;15.92;37.94;101652.41;6043394;23;20374;-90
2023/12/29 10:52:26;;;;;;;0.20;0.20;;;;;;;16.03;37.96;101646.63;6011356;23;20809;-89
2023/12/29 10:55:07;;;;;;;1.30;0.40;;;;;;;16.00;37.88;101650.50;5986634;23;22850;-89
2023/12/29 10:57:38;;;;;;;0.10;0.10;;;;;;;16.01;37.71;101640.66;5991033;23;20411;-92
2023/12/29 11:00:33;;;;;;;0.20;0.20;;;;;;;15.93;37.58;101644.22;6002063;23;20387;-95
2023/12/29 11:03:06;;;;;;;0.22;0.22;;;;;;;16.07;37.92;101647.94;5978527;23;20438;-92
2023/12/29 11:05:33;;;;;;;0.20;0.20;;;;;;;16.32;37.69;101655.69;6019457;23;20422;-87
2023/12/29 11:08:14;;;;;;;0.60;0.60;;;;;;;16.46;37.53;101643.28;6015639;23;20430;-87
2023/12/29 11:10:49;;;;;;;0.17;0.17;;;;;;;16.36;37.10;101643.59;6004304;23;20371;-86
2023/12/29 11:13:20;;;;;;;0.10;0.10;;;;;;;16.46;37.09;101641.47;6026127;23;20792;-88
2023/12/29 11:15:47;;;;;;;0.10;0.10;;;;;;;16.24;37.12;101645.88;5986832;23;20430;-89
2023/12/29 11:18:18;;;;;;;0.30;0.30;;;;;;;16.16;37.29;101629.94;6016647;23;20406;-89
2023/12/29 11:21:18;;;;;;;0.60;0.60;;;;;;;16.27;37.23;101634.81;5983073;23;20371;-87
2023/12/29 11:23:43;;;;;;;0.90;0.90;;;;;;;16.46;37.05;101632.59;6002202;23;20369;-87
2023/12/29 11:26:17;;;;;;;0.17;0.17;;;;;;;16.68;36.65;101625.47;6010685;23;20416;-86
2023/12/29 11:28:46;;;;;;;0.47;0.47;;;;;;;16.70;36.57;101618.91;5981829;23;20506;-87
2023/12/29 11:31:18;;;;;;;0.22;0.22;;;;;;;16.87;36.66;101608.84;6087814;23;20414;-90
2023/12/29 11:33:54;;;;;;;0.80;0.80;;;;;;;16.61;36.28;101620.84;6067475;23;20390;-89
2023/12/29 11:36:28;;;;;;;0.30;0.30;;;;;;;16.20;36.93;101615.19;6069455;23;20879;-86
2023/12/29 11:39:13;;;;;;;0.20;0.20;;;;;;;16.43;37.03;101623.94;6047817;23;20375;-91
2023/12/29 11:42:17;;;;;;;1.40;0.70;;;;;;;16.62;36.41;101611.81;6071275;23;20913;-89
2023/12/29 11:44:52;;;;;;;0.40;0.40;;;;;;;16.38;36.56;101604.91;6073780;23;20764;-87
2023/12/29 11:47:38;;;;;;;0.10;0.10;;;;;;;16.19;36.89;101600.16;6046638;23;20791;-90
2023/12/29 11:50:05;;;;;;;0.30;0.30;;;;;;;16.20;36.94;101607.16;6044670;23;20375;-89
2023/12/29 11:52:41;;;;;;;0.32;0.32;;;;;;;16.09;36.90;101603.09;6046739;23;20452;-89
2023/12/29 11:55:26;;;;;;;0.20;0.20;;;;;;;16.43;36.61;101601.69;6047356;23;20402;-89
2023/12/29 11:57:54;;;;;;;0.60;0.60;;;;;;;16.25;36.66;101600.22;6049471;23;20422;-88